createdAt,value
2022-12-31T04:03:28.735Z,39.90
2022-12-31T04:06:38.509Z,40.90
2022-12-31T04:09:48.215Z,44.50
2022-12-31T04:13:00.315Z,70.27
2022-12-31T04:16:10.267Z,80.97
2022-12-31T04:19:21.436Z,70.30
2022-12-31T04:22:31.244Z,53.87
2022-12-31T04:25:40.951Z,86.37
2022-12-31T04:28:54.036Z,49.17
2022-12-31T04:32:04.420Z,52.93
2022-12-31T04:35:15.621Z,48.30
2022-12-31T04:38:25.321Z,55.33
2022-12-31T04:41:35.294Z,60.13
2022-12-31T04:44:45.028Z,52.87
2022-12-31T04:47:54.870Z,75.33
2022-12-31T04:51:05.968Z,62.57
2022-12-31T04:54:15.719Z,54.83
2022-12-31T04:57:27.595Z,61.53
2022-12-31T05:00:37.344Z,59.67
2022-12-31T05:03:47.254Z,53.53
2022-12-31T05:06:58.275Z,92.23
2022-12-31T05:10:08.614Z,67.97
2022-12-31T05:13:18.386Z,143.70
2022-12-31T05:16:28.125Z,103.43
2022-12-31T05:19:37.833Z,146.93
2022-12-31T05:22:48.803Z,182.17
2022-12-31T05:25:59.522Z,277.73
2022-12-31T05:29:09.213Z,252.47
2022-12-31T05:32:18.994Z,243.60
2022-12-31T05:35:28.696Z,261.77
2022-12-31T05:38:39.785Z,265.60
2022-12-31T05:41:49.996Z,255.83
2022-12-31T05:44:59.805Z,237.50
2022-12-31T05:48:09.535Z,258.63
2022-12-31T05:51:19.229Z,258.47
2022-12-31T05:54:30.336Z,249.17
2022-12-31T05:57:40.979Z,254.30
2022-12-31T08:23:38.191Z,42.57
2022-12-31T08:26:59.425Z,38.43
2022-12-31T08:30:12.959Z,41.80
2022-12-31T08:33:30.260Z,39.27
2022-12-31T08:36:46.515Z,35.03
2022-12-31T08:40:13.361Z,37.27
2022-12-31T08:43:38.698Z,36.03
2022-12-31T08:46:55.547Z,37.60
2022-12-31T08:50:06.175Z,40.10
2022-12-31T08:53:16.476Z,49.00
2022-12-31T08:56:33.671Z,48.20
2022-12-31T08:59:52.669Z,49.53
2022-12-31T09:03:16.496Z,47.90
2022-12-31T09:06:30.204Z,54.30
2022-12-31T09:09:53.573Z,87.67
2022-12-31T09:13:13.154Z,107.73
2022-12-31T09:16:30.438Z,98.37
2022-12-31T09:19:40.093Z,118.17
2022-12-31T09:22:50.179Z,133.60
2022-12-31T09:26:12.184Z,154.37
2022-12-31T09:29:36.355Z,127.43
2022-12-31T09:33:01.058Z,122.70
2022-12-31T09:36:17.400Z,102.63
2022-12-31T09:39:34.500Z,101.93
2022-12-31T09:43:03.542Z,126.00
2022-12-31T09:46:42.945Z,75.33
2022-12-31T09:50:20.793Z,80.73
2022-12-31T09:53:47.574Z,84.40
2022-12-31T09:57:16.102Z,86.03
2022-12-31T10:00:34.800Z,75.93
2022-12-31T14:52:53.257Z,32.07
2022-12-31T14:56:05.709Z,32.70
2022-12-31T14:59:27.089Z,32.40
2022-12-31T15:02:37.149Z,39.87
2022-12-31T15:05:55.948Z,31.60
2022-12-31T15:09:21.940Z,34.23
2022-12-31T15:12:47.565Z,39.13
2022-12-31T15:16:11.268Z,41.23
2022-12-31T15:19:46.734Z,36.77
2022-12-31T15:22:56.917Z,38.40
2022-12-31T15:26:08.464Z,39.87
2022-12-31T15:29:27.421Z,45.00
2022-12-31T15:32:42.490Z,38.97
2022-12-31T15:35:54.796Z,52.83
2022-12-31T15:39:24.319Z,42.10
2022-12-31T15:42:49.693Z,43.40
2022-12-31T15:46:01.697Z,39.83
2022-12-31T15:49:16.542Z,45.77
2022-12-31T15:52:31.459Z,42.87
2022-12-31T15:55:45.601Z,43.50
2022-12-31T15:59:00.447Z,54.73
2022-12-31T16:02:20.094Z,42.83
2022-12-31T16:05:29.937Z,47.40
2022-12-31T16:08:41.314Z,43.80
2022-12-31T16:11:52.199Z,48.30
2022-12-31T16:15:03.652Z,42.80
2022-12-31T16:18:22.376Z,46.57
2022-12-31T16:21:34.407Z,47.90
2022-12-31T16:25:19.626Z,49.03
2022-12-31T16:28:19.538Z,44.47
2022-12-31T16:31:31.483Z,41.57
2022-12-31T16:34:41.220Z,41.60
2022-12-31T16:38:02.150Z,41.83
2022-12-31T16:41:18.827Z,40.13
2022-12-31T16:44:31.031Z,42.37
2022-12-31T16:47:43.800Z,39.33
2022-12-31T16:50:55.638Z,41.13
2022-12-31T16:54:05.677Z,45.67
2022-12-31T16:57:22.352Z,40.93
2022-12-31T17:00:34.108Z,51.53
2022-12-31T17:03:52.247Z,40.40
2022-12-31T17:07:25.816Z,44.20
2022-12-31T17:10:36.681Z,45.67
2022-12-31T17:13:55.239Z,38.83
2022-12-31T17:17:07.849Z,45.53
2022-12-31T17:20:25.611Z,42.90
2022-12-31T17:23:37.342Z,40.30
2022-12-31T17:26:47.118Z,42.97
2022-12-31T17:30:20.480Z,49.30
2022-12-31T17:33:32.005Z,40.17
2022-12-31T17:36:55.344Z,103.87
2022-12-31T17:40:48.773Z,42.23
2022-12-31T17:43:37.864Z,53.03
2022-12-31T17:46:49.122Z,45.87
2022-12-31T17:49:58.891Z,43.87
2022-12-31T17:53:13.910Z,45.33
2022-12-31T17:56:23.731Z,42.57
2022-12-31T17:59:35.387Z,42.90
2022-12-31T18:02:45.206Z,47.20
2022-12-31T18:05:55.143Z,46.77
2022-12-31T18:09:06.113Z,52.60
2022-12-31T18:12:16.575Z,47.67
2022-12-31T18:15:26.430Z,69.83
2022-12-31T18:18:39.937Z,43.37
2022-12-31T18:21:49.769Z,46.93
2022-12-31T18:25:00.726Z,54.23
2022-12-31T18:28:11.809Z,48.07
2022-12-31T18:31:24.390Z,40.63
2022-12-31T18:34:34.563Z,41.80
2022-12-31T18:37:44.766Z,41.10
2022-12-31T18:40:58.042Z,62.60
2022-12-31T18:44:08.395Z,49.97
2022-12-31T18:47:23.086Z,34.63
2022-12-31T18:50:32.869Z,61.43
2022-12-31T18:53:43.061Z,43.47
2022-12-31T18:56:57.176Z,40.07
2022-12-31T19:00:09.138Z,41.03
2022-12-31T19:03:21.064Z,35.70
2022-12-31T19:06:31.609Z,44.63
2022-12-31T19:09:46.069Z,59.27
2022-12-31T19:12:57.435Z,47.80
2022-12-31T19:16:07.907Z,41.13
2022-12-31T19:19:18.104Z,44.07
2022-12-31T19:22:27.801Z,44.10
2022-12-31T19:25:47.699Z,44.43
2022-12-31T19:28:58.708Z,51.60
2022-12-31T19:32:08.442Z,52.60
2022-12-31T19:35:18.453Z,45.13
2022-12-31T19:38:32.054Z,41.10
2022-12-31T19:41:43.445Z,40.97
2022-12-31T19:44:54.527Z,40.93
2022-12-31T19:48:04.222Z,39.13
2022-12-31T19:51:19.767Z,40.27
2022-12-31T19:54:31.598Z,36.63
2022-12-31T19:57:41.855Z,39.00
2022-12-31T20:00:58.209Z,42.17
2022-12-31T20:04:11.684Z,41.10
2022-12-31T20:07:26.994Z,42.07
2022-12-31T20:10:38.008Z,45.27
2022-12-31T20:13:48.951Z,39.33
2022-12-31T20:17:00.205Z,39.67
2022-12-31T20:20:10.491Z,44.60
2022-12-31T20:23:20.237Z,44.60
2022-12-31T20:26:30.027Z,43.47
2022-12-31T20:29:39.872Z,76.20
2022-12-31T20:32:52.619Z,39.60
2022-12-31T20:36:03.325Z,80.77
2022-12-31T20:39:15.834Z,44.73
2022-12-31T20:42:25.745Z,46.03
2022-12-31T20:45:35.569Z,49.83
2022-12-31T20:48:47.795Z,45.87
2022-12-31T20:51:57.742Z,42.67
2022-12-31T20:55:09.651Z,41.53
2022-12-31T20:58:19.436Z,56.40
2022-12-31T21:01:48.202Z,52.77
2022-12-31T21:05:01.193Z,43.43
2022-12-31T21:08:11.137Z,37.27
2022-12-31T21:11:31.840Z,55.60
2022-12-31T21:14:44.900Z,37.17
2022-12-31T21:17:54.897Z,39.07
2022-12-31T21:21:06.183Z,44.07
2022-12-31T21:24:21.804Z,53.70
2022-12-31T21:27:33.413Z,50.47
2022-12-31T21:30:43.378Z,40.63
2022-12-31T21:33:53.092Z,47.53
2022-12-31T21:37:04.174Z,46.20
2022-12-31T21:40:14.126Z,46.27
2022-12-31T21:43:23.895Z,41.60
2022-12-31T21:46:33.904Z,39.57
2022-12-31T21:49:43.699Z,42.87
2022-12-31T21:52:54.780Z,51.13
2022-12-31T21:56:11.599Z,53.80
2022-12-31T21:59:32.472Z,37.40
2022-12-31T22:02:59.734Z,81.27
2022-12-31T22:06:12.970Z,56.70
2022-12-31T22:09:24.067Z,59.83
2022-12-31T22:12:33.832Z,49.03
2022-12-31T22:15:44.517Z,73.37
2022-12-31T22:18:56.416Z,62.77
2022-12-31T22:22:06.479Z,96.47
2022-12-31T22:25:17.760Z,75.70
2022-12-31T22:28:42.875Z,73.80
2022-12-31T22:31:57.999Z,75.63
2022-12-31T22:35:10.621Z,92.13
2022-12-31T22:38:20.331Z,84.63
2022-12-31T22:41:31.336Z,84.97
2022-12-31T22:44:41.172Z,84.83
2022-12-31T22:47:50.797Z,80.00
2022-12-31T22:51:00.463Z,77.50
2022-12-31T22:54:10.924Z,106.10
2022-12-31T22:57:21.985Z,78.47
2022-12-31T23:00:42.229Z,86.30
2022-12-31T23:03:53.764Z,109.27
2022-12-31T23:07:03.503Z,145.90
2022-12-31T23:10:24.234Z,115.20
2022-12-31T23:13:51.404Z,98.37
2022-12-31T23:17:31.182Z,95.03
2022-12-31T23:20:52.751Z,106.50
2022-12-31T23:24:04.378Z,132.33
2022-12-31T23:27:14.218Z,115.57
2022-12-31T23:30:25.367Z,80.97
2022-12-31T23:33:35.229Z,96.13
2022-12-31T23:36:44.940Z,117.67
2022-12-31T23:39:54.678Z,93.87
2022-12-31T23:43:06.307Z,77.40
2022-12-31T23:46:18.174Z,80.13
2022-12-31T23:49:27.977Z,55.63
2022-12-31T23:52:37.779Z,108.47
2022-12-31T23:55:47.608Z,64.30
2022-12-31T23:58:58.579Z,67.60
